sensor_id;sensor_type;location;lat;lon;timestamp;P1;durP1;ratioP1;P2;durP2;ratioP2
17741;SDS011;8993;51.822;-2.268;2022-09-09T00:01:15;27.51;;;12.64;;
17741;SDS011;8993;51.822;-2.268;2022-09-09T00:06:20;26.70;;;12.21;;
17741;SDS011;8993;51.822;-2.268;2022-09-09T00:11:24;26.90;;;12.50;;
17741;SDS011;8993;51.822;-2.268;2022-09-09T00:16:27;24.81;;;12.33;;
17741;SDS011;8993;51.822;-2.268;2022-09-09T00:21:31;23.29;;;11.37;;
17741;SDS011;8993;51.822;-2.268;2022-09-09T00:26:35;23.01;;;10.50;;
17741;SDS011;8993;51.822;-2.268;2022-09-09T00:31:39;17.87;;;8.77;;
17741;SDS011;8993;51.822;-2.268;2022-09-09T00:36:43;16.93;;;7.55;;
17741;SDS011;8993;51.822;-2.268;2022-09-09T00:41:50;11.28;;;6.05;;
17741;SDS011;8993;51.822;-2.268;2022-09-09T00:46:55;15.21;;;7.30;;
17741;SDS011;8993;51.822;-2.268;2022-09-09T00:51:59;14.75;;;6.76;;
17741;SDS011;8993;51.822;-2.268;2022-09-09T00:57:05;11.95;;;5.88;;
17741;SDS011;8993;51.822;-2.268;2022-09-09T01:02:06;14.84;;;7.42;;
17741;SDS011;8993;51.822;-2.268;2022-09-09T01:07:11;10.56;;;6.02;;
17741;SDS011;8993;51.822;-2.268;2022-09-09T01:12:15;12.11;;;6.73;;
17741;SDS011;8993;51.822;-2.268;2022-09-09T01:17:20;13.30;;;7.14;;
17741;SDS011;8993;51.822;-2.268;2022-09-09T01:22:26;12.35;;;6.81;;
17741;SDS011;8993;51.822;-2.268;2022-09-09T01:27:27;13.52;;;7.56;;
17741;SDS011;8993;51.822;-2.268;2022-09-09T01:32:40;11.22;;;6.24;;
17741;SDS011;8993;51.822;-2.268;2022-09-09T01:37:36;13.83;;;6.94;;
17741;SDS011;8993;51.822;-2.268;2022-09-09T01:42:40;12.76;;;7.29;;
17741;SDS011;8993;51.822;-2.268;2022-09-09T01:47:44;12.09;;;6.68;;
17741;SDS011;8993;51.822;-2.268;2022-09-09T01:52:52;10.59;;;7.01;;
17741;SDS011;8993;51.822;-2.268;2022-09-09T01:57:56;16.14;;;8.02;;
17741;SDS011;8993;51.822;-2.268;2022-09-09T02:03:00;11.55;;;6.99;;
17741;SDS011;8993;51.822;-2.268;2022-09-09T02:08:05;17.03;;;9.72;;
17741;SDS011;8993;51.822;-2.268;2022-09-09T02:13:09;13.87;;;8.40;;
17741;SDS011;8993;51.822;-2.268;2022-09-09T02:18:12;16.35;;;10.05;;
17741;SDS011;8993;51.822;-2.268;2022-09-09T02:23:16;16.48;;;10.56;;
17741;SDS011;8993;51.822;-2.268;2022-09-09T02:28:20;14.90;;;9.72;;
17741;SDS011;8993;51.822;-2.268;2022-09-09T02:33:26;16.34;;;10.40;;
17741;SDS011;8993;51.822;-2.268;2022-09-09T02:38:30;13.64;;;9.01;;
17741;SDS011;8993;51.822;-2.268;2022-09-09T02:43:34;15.21;;;9.71;;
17741;SDS011;8993;51.822;-2.268;2022-09-09T02:48:39;14.44;;;9.06;;
17741;SDS011;8993;51.822;-2.268;2022-09-09T02:53:43;12.12;;;7.77;;
17741;SDS011;8993;51.822;-2.268;2022-09-09T02:58:48;13.78;;;8.33;;
17741;SDS011;8993;51.822;-2.268;2022-09-09T03:03:51;17.45;;;9.29;;
17741;SDS011;8993;51.822;-2.268;2022-09-09T03:08:55;13.87;;;8.05;;
17741;SDS011;8993;51.822;-2.268;2022-09-09T03:13:59;12.99;;;7.77;;
17741;SDS011;8993;51.822;-2.268;2022-09-09T03:19:04;13.06;;;8.27;;
17741;SDS011;8993;51.822;-2.268;2022-09-09T03:24:08;13.06;;;7.90;;
17741;SDS011;8993;51.822;-2.268;2022-09-09T03:29:12;14.26;;;7.99;;
17741;SDS011;8993;51.822;-2.268;2022-09-09T03:34:17;15.27;;;8.79;;
17741;SDS011;8993;51.822;-2.268;2022-09-09T03:39:21;14.69;;;8.58;;
17741;SDS011;8993;51.822;-2.268;2022-09-09T03:44:25;13.06;;;7.91;;
17741;SDS011;8993;51.822;-2.268;2022-09-09T03:49:30;11.61;;;6.89;;
17741;SDS011;8993;51.822;-2.268;2022-09-09T03:54:34;11.57;;;7.32;;
17741;SDS011;8993;51.822;-2.268;2022-09-09T03:59:38;11.82;;;7.83;;
17741;SDS011;8993;51.822;-2.268;2022-09-09T04:04:43;13.52;;;7.77;;
17741;SDS011;8993;51.822;-2.268;2022-09-09T04:09:48;12.81;;;8.12;;
17741;SDS011;8993;51.822;-2.268;2022-09-09T04:14:52;13.59;;;7.07;;
17741;SDS011;8993;51.822;-2.268;2022-09-09T04:19:57;15.43;;;7.56;;
17741;SDS011;8993;51.822;-2.268;2022-09-09T04:25:01;14.55;;;8.01;;
17741;SDS011;8993;51.822;-2.268;2022-09-09T04:30:06;11.88;;;7.65;;
17741;SDS011;8993;51.822;-2.268;2022-09-09T04:35:10;12.81;;;8.06;;
17741;SDS011;8993;51.822;-2.268;2022-09-09T04:40:14;13.75;;;8.45;;
17741;SDS011;8993;51.822;-2.268;2022-09-09T04:45:18;16.07;;;7.45;;
17741;SDS011;8993;51.822;-2.268;2022-09-09T04:50:22;16.06;;;6.28;;
17741;SDS011;8993;51.822;-2.268;2022-09-09T04:55:27;12.11;;;5.35;;
17741;SDS011;8993;51.822;-2.268;2022-09-09T05:00:31;8.83;;;4.35;;
17741;SDS011;8993;51.822;-2.268;2022-09-09T05:05:35;7.51;;;3.86;;
17741;SDS011;8993;51.822;-2.268;2022-09-09T05:10:40;8.54;;;4.04;;
17741;SDS011;8993;51.822;-2.268;2022-09-09T05:15:51;8.86;;;4.81;;
17741;SDS011;8993;51.822;-2.268;2022-09-09T05:20:50;11.75;;;4.96;;
17741;SDS011;8993;51.822;-2.268;2022-09-09T05:25:55;11.21;;;4.98;;
17741;SDS011;8993;51.822;-2.268;2022-09-09T05:30:58;11.67;;;4.60;;
17741;SDS011;8993;51.822;-2.268;2022-09-09T05:36:03;8.93;;;3.72;;
17741;SDS011;8993;51.822;-2.268;2022-09-09T05:41:08;7.02;;;2.98;;
17741;SDS011;8993;51.822;-2.268;2022-09-09T05:46:13;8.83;;;3.22;;
17741;SDS011;8993;51.822;-2.268;2022-09-09T05:51:18;6.65;;;2.95;;
17741;SDS011;8993;51.822;-2.268;2022-09-09T05:56:22;8.50;;;3.38;;
17741;SDS011;8993;51.822;-2.268;2022-09-09T06:01:26;7.51;;;3.16;;
17741;SDS011;8993;51.822;-2.268;2022-09-09T06:06:30;7.26;;;2.81;;
17741;SDS011;8993;51.822;-2.268;2022-09-09T06:11:34;6.68;;;2.83;;
17741;SDS011;8993;51.822;-2.268;2022-09-09T06:16:38;7.08;;;2.58;;
17741;SDS011;8993;51.822;-2.268;2022-09-09T06:21:42;6.78;;;2.12;;
17741;SDS011;8993;51.822;-2.268;2022-09-09T06:26:46;5.51;;;2.00;;
17741;SDS011;8993;51.822;-2.268;2022-09-09T06:31:51;4.85;;;2.05;;
17741;SDS011;8993;51.822;-2.268;2022-09-09T06:36:55;5.25;;;2.13;;
17741;SDS011;8993;51.822;-2.268;2022-09-09T06:42:00;5.58;;;1.93;;
17741;SDS011;8993;51.822;-2.268;2022-09-09T06:47:04;5.47;;;1.61;;
17741;SDS011;8993;51.822;-2.268;2022-09-09T06:52:08;7.65;;;1.45;;
17741;SDS011;8993;51.822;-2.268;2022-09-09T06:57:13;5.32;;;1.39;;
17741;SDS011;8993;51.822;-2.268;2022-09-09T07:02:17;6.08;;;1.33;;
17741;SDS011;8993;51.822;-2.268;2022-09-09T07:07:22;6.85;;;1.25;;
17741;SDS011;8993;51.822;-2.268;2022-09-09T07:12:26;5.39;;;1.12;;
17741;SDS011;8993;51.822;-2.268;2022-09-09T07:17:30;7.09;;;1.21;;
17741;SDS011;8993;51.822;-2.268;2022-09-09T07:22:34;4.94;;;0.96;;
17741;SDS011;8993;51.822;-2.268;2022-09-09T07:27:39;6.08;;;0.86;;
17741;SDS011;8993;51.822;-2.268;2022-09-09T07:32:43;5.20;;;0.85;;
17741;SDS011;8993;51.822;-2.268;2022-09-09T07:37:47;4.34;;;0.62;;
17741;SDS011;8993;51.822;-2.268;2022-09-09T07:42:51;3.93;;;0.64;;
17741;SDS011;8993;51.822;-2.268;2022-09-09T07:47:56;4.11;;;0.53;;
17741;SDS011;8993;51.822;-2.268;2022-09-09T07:53:00;3.59;;;0.56;;
17741;SDS011;8993;51.822;-2.268;2022-09-09T07:58:05;3.61;;;0.50;;
17741;SDS011;8993;51.822;-2.268;2022-09-09T08:03:09;3.21;;;0.49;;
17741;SDS011;8993;51.822;-2.268;2022-09-09T08:08:14;3.80;;;0.43;;
17741;SDS011;8993;51.822;-2.268;2022-09-09T08:13:18;4.61;;;0.64;;
17741;SDS011;8993;51.822;-2.268;2022-09-09T08:18:23;5.70;;;0.67;;
17741;SDS011;8993;51.822;-2.268;2022-09-09T08:23:27;2.88;;;0.59;;
17741;SDS011;8993;51.822;-2.268;2022-09-09T08:28:31;3.77;;;0.57;;
17741;SDS011;8993;51.822;-2.268;2022-09-09T08:33:35;2.00;;;0.42;;
17741;SDS011;8993;51.822;-2.268;2022-09-09T08:38:43;2.55;;;0.49;;
17741;SDS011;8993;51.822;-2.268;2022-09-09T08:43:46;2.69;;;0.44;;
17741;SDS011;8993;51.822;-2.268;2022-09-09T08:48:52;1.47;;;0.31;;
17741;SDS011;8993;51.822;-2.268;2022-09-09T08:53:55;3.31;;;0.41;;
17741;SDS011;8993;51.822;-2.268;2022-09-09T08:59:00;1.38;;;0.38;;
17741;SDS011;8993;51.822;-2.268;2022-09-09T09:04:05;2.74;;;0.39;;
17741;SDS011;8993;51.822;-2.268;2022-09-09T09:09:10;1.87;;;0.35;;
17741;SDS011;8993;51.822;-2.268;2022-09-09T09:14:14;2.43;;;0.48;;
17741;SDS011;8993;51.822;-2.268;2022-09-09T09:19:18;2.27;;;0.42;;
17741;SDS011;8993;51.822;-2.268;2022-09-09T09:24:24;1.69;;;0.30;;
17741;SDS011;8993;51.822;-2.268;2022-09-09T09:29:27;1.51;;;0.31;;
17741;SDS011;8993;51.822;-2.268;2022-09-09T09:34:33;1.63;;;0.30;;
17741;SDS011;8993;51.822;-2.268;2022-09-09T09:39:37;1.36;;;0.27;;
17741;SDS011;8993;51.822;-2.268;2022-09-09T09:44:41;1.65;;;0.36;;
17741;SDS011;8993;51.822;-2.268;2022-09-09T09:49:53;1.57;;;0.26;;
17741;SDS011;8993;51.822;-2.268;2022-09-09T09:54:50;1.98;;;0.25;;
17741;SDS011;8993;51.822;-2.268;2022-09-09T10:00:03;2.62;;;0.29;;
17741;SDS011;8993;51.822;-2.268;2022-09-09T10:05:00;2.28;;;0.29;;
17741;SDS011;8993;51.822;-2.268;2022-09-09T10:10:04;1.81;;;0.33;;
17741;SDS011;8993;51.822;-2.268;2022-09-09T10:15:14;2.18;;;0.27;;
17741;SDS011;8993;51.822;-2.268;2022-09-09T10:20:16;1.69;;;0.30;;
17741;SDS011;8993;51.822;-2.268;2022-09-09T10:25:21;1.01;;;0.27;;
17741;SDS011;8993;51.822;-2.268;2022-09-09T10:30:22;1.52;;;0.34;;
17741;SDS011;8993;51.822;-2.268;2022-09-09T10:35:29;1.00;;;0.25;;
17741;SDS011;8993;51.822;-2.268;2022-09-09T10:40:32;0.89;;;0.25;;
17741;SDS011;8993;51.822;-2.268;2022-09-09T10:45:37;1.08;;;0.25;;
17741;SDS011;8993;51.822;-2.268;2022-09-09T10:50:43;1.61;;;0.41;;
17741;SDS011;8993;51.822;-2.268;2022-09-09T10:55:45;0.86;;;0.29;;
17741;SDS011;8993;51.822;-2.268;2022-09-09T11:00:49;1.47;;;0.39;;
17741;SDS011;8993;51.822;-2.268;2022-09-09T11:05:53;2.10;;;0.62;;
17741;SDS011;8993;51.822;-2.268;2022-09-09T11:10:59;2.89;;;0.48;;
17741;SDS011;8993;51.822;-2.268;2022-09-09T11:16:04;1.04;;;0.31;;
17741;SDS011;8993;51.822;-2.268;2022-09-09T11:21:07;3.31;;;0.34;;
17741;SDS011;8993;51.822;-2.268;2022-09-09T11:26:11;1.19;;;0.31;;
17741;SDS011;8993;51.822;-2.268;2022-09-09T11:31:19;1.89;;;0.43;;
17741;SDS011;8993;51.822;-2.268;2022-09-09T11:36:26;1.00;;;0.25;;
17741;SDS011;8993;51.822;-2.268;2022-09-09T11:41:32;1.98;;;0.26;;
17741;SDS011;8993;51.822;-2.268;2022-09-09T11:46:31;1.72;;;0.20;;
17741;SDS011;8993;51.822;-2.268;2022-09-09T11:51:32;1.33;;;0.20;;
17741;SDS011;8993;51.822;-2.268;2022-09-09T11:56:42;1.17;;;0.22;;
17741;SDS011;8993;51.822;-2.268;2022-09-09T12:01:41;0.60;;;0.17;;
17741;SDS011;8993;51.822;-2.268;2022-09-09T12:06:46;0.52;;;0.10;;
17741;SDS011;8993;51.822;-2.268;2022-09-09T12:11:50;1.12;;;0.22;;
17741;SDS011;8993;51.822;-2.268;2022-09-09T12:16:54;1.07;;;0.19;;
17741;SDS011;8993;51.822;-2.268;2022-09-09T12:22:00;1.57;;;0.23;;
17741;SDS011;8993;51.822;-2.268;2022-09-09T12:27:05;0.72;;;0.23;;
17741;SDS011;8993;51.822;-2.268;2022-09-09T12:32:07;1.96;;;0.22;;
17741;SDS011;8993;51.822;-2.268;2022-09-09T12:37:14;1.21;;;0.32;;
17741;SDS011;8993;51.822;-2.268;2022-09-09T12:42:16;2.25;;;0.28;;
17741;SDS011;8993;51.822;-2.268;2022-09-09T12:47:20;1.10;;;0.20;;
17741;SDS011;8993;51.822;-2.268;2022-09-09T12:52:25;1.22;;;0.26;;
17741;SDS011;8993;51.822;-2.268;2022-09-09T12:57:30;1.38;;;0.19;;
17741;SDS011;8993;51.822;-2.268;2022-09-09T13:02:32;1.65;;;0.24;;
17741;SDS011;8993;51.822;-2.268;2022-09-09T13:07:36;1.26;;;0.20;;
17741;SDS011;8993;51.822;-2.268;2022-09-09T13:12:41;1.25;;;0.20;;
17741;SDS011;8993;51.822;-2.268;2022-09-09T13:17:49;1.19;;;0.20;;
17741;SDS011;8993;51.822;-2.268;2022-09-09T13:22:50;1.80;;;0.19;;
17741;SDS011;8993;51.822;-2.268;2022-09-09T13:27:57;1.16;;;0.18;;
17741;SDS011;8993;51.822;-2.268;2022-09-09T13:33:00;1.57;;;0.20;;
17741;SDS011;8993;51.822;-2.268;2022-09-09T13:38:07;1.09;;;0.18;;
17741;SDS011;8993;51.822;-2.268;2022-09-09T13:43:11;1.19;;;0.24;;
17741;SDS011;8993;51.822;-2.268;2022-09-09T13:48:17;1.24;;;0.22;;
17741;SDS011;8993;51.822;-2.268;2022-09-09T13:53:18;0.93;;;0.18;;
17741;SDS011;8993;51.822;-2.268;2022-09-09T13:58:22;1.09;;;0.19;;
17741;SDS011;8993;51.822;-2.268;2022-09-09T14:03:26;1.74;;;0.27;;
17741;SDS011;8993;51.822;-2.268;2022-09-09T14:08:31;1.51;;;0.25;;
17741;SDS011;8993;51.822;-2.268;2022-09-09T14:13:35;1.44;;;0.21;;
17741;SDS011;8993;51.822;-2.268;2022-09-09T14:18:39;1.68;;;0.23;;
17741;SDS011;8993;51.822;-2.268;2022-09-09T14:23:44;0.72;;;0.19;;
17741;SDS011;8993;51.822;-2.268;2022-09-09T14:28:48;1.50;;;0.24;;
17741;SDS011;8993;51.822;-2.268;2022-09-09T14:33:52;0.97;;;0.27;;
17741;SDS011;8993;51.822;-2.268;2022-09-09T14:38:58;1.13;;;0.24;;
17741;SDS011;8993;51.822;-2.268;2022-09-09T14:44:02;1.33;;;0.29;;
17741;SDS011;8993;51.822;-2.268;2022-09-09T14:49:06;1.85;;;0.33;;
17741;SDS011;8993;51.822;-2.268;2022-09-09T14:54:10;0.96;;;0.21;;
17741;SDS011;8993;51.822;-2.268;2022-09-09T14:59:15;0.76;;;0.25;;
17741;SDS011;8993;51.822;-2.268;2022-09-09T15:04:19;0.83;;;0.21;;
17741;SDS011;8993;51.822;-2.268;2022-09-09T15:09:23;1.17;;;0.25;;
17741;SDS011;8993;51.822;-2.268;2022-09-09T15:14:27;1.23;;;0.20;;
17741;SDS011;8993;51.822;-2.268;2022-09-09T15:19:31;0.99;;;0.20;;
17741;SDS011;8993;51.822;-2.268;2022-09-09T15:24:36;1.33;;;0.20;;
17741;SDS011;8993;51.822;-2.268;2022-09-09T15:29:40;0.49;;;0.20;;
17741;SDS011;8993;51.822;-2.268;2022-09-09T15:34:44;1.55;;;0.29;;
17741;SDS011;8993;51.822;-2.268;2022-09-09T15:39:49;0.36;;;0.14;;
17741;SDS011;8993;51.822;-2.268;2022-09-09T15:44:53;0.70;;;0.18;;
17741;SDS011;8993;51.822;-2.268;2022-09-09T15:49:57;0.44;;;0.14;;
17741;SDS011;8993;51.822;-2.268;2022-09-09T15:55:01;0.77;;;0.10;;
17741;SDS011;8993;51.822;-2.268;2022-09-09T16:00:06;1.21;;;0.14;;
17741;SDS011;8993;51.822;-2.268;2022-09-09T16:05:10;1.20;;;0.20;;
17741;SDS011;8993;51.822;-2.268;2022-09-09T16:10:14;0.65;;;0.16;;
17741;SDS011;8993;51.822;-2.268;2022-09-09T16:15:18;1.07;;;0.21;;
17741;SDS011;8993;51.822;-2.268;2022-09-09T16:20:23;0.94;;;0.15;;
17741;SDS011;8993;51.822;-2.268;2022-09-09T16:25:27;0.98;;;0.17;;
17741;SDS011;8993;51.822;-2.268;2022-09-09T16:30:31;0.82;;;0.25;;
17741;SDS011;8993;51.822;-2.268;2022-09-09T16:35:36;1.31;;;0.27;;
17741;SDS011;8993;51.822;-2.268;2022-09-09T16:40:40;0.34;;;0.16;;
17741;SDS011;8993;51.822;-2.268;2022-09-09T16:45:44;1.78;;;0.31;;
17741;SDS011;8993;51.822;-2.268;2022-09-09T16:50:48;0.79;;;0.20;;
17741;SDS011;8993;51.822;-2.268;2022-09-09T16:55:53;1.06;;;0.22;;
17741;SDS011;8993;51.822;-2.268;2022-09-09T17:00:57;1.16;;;0.33;;
17741;SDS011;8993;51.822;-2.268;2022-09-09T17:06:03;1.24;;;0.20;;
17741;SDS011;8993;51.822;-2.268;2022-09-09T17:11:11;0.61;;;0.21;;
17741;SDS011;8993;51.822;-2.268;2022-09-09T17:16:11;0.69;;;0.23;;
17741;SDS011;8993;51.822;-2.268;2022-09-09T17:21:16;0.51;;;0.22;;
17741;SDS011;8993;51.822;-2.268;2022-09-09T17:26:21;0.54;;;0.19;;
17741;SDS011;8993;51.822;-2.268;2022-09-09T17:31:24;0.41;;;0.19;;
17741;SDS011;8993;51.822;-2.268;2022-09-09T17:36:29;0.82;;;0.24;;
17741;SDS011;8993;51.822;-2.268;2022-09-09T17:41:34;0.93;;;0.40;;
17741;SDS011;8993;51.822;-2.268;2022-09-09T17:46:38;1.57;;;0.45;;
17741;SDS011;8993;51.822;-2.268;2022-09-09T17:51:42;2.08;;;0.54;;
17741;SDS011;8993;51.822;-2.268;2022-09-09T17:56:46;1.35;;;0.40;;
17741;SDS011;8993;51.822;-2.268;2022-09-09T18:01:50;1.54;;;0.50;;
17741;SDS011;8993;51.822;-2.268;2022-09-09T18:06:55;1.61;;;0.26;;
17741;SDS011;8993;51.822;-2.268;2022-09-09T18:11:59;1.42;;;0.40;;
17741;SDS011;8993;51.822;-2.268;2022-09-09T18:17:04;2.13;;;0.42;;
17741;SDS011;8993;51.822;-2.268;2022-09-09T18:22:08;2.33;;;0.74;;
17741;SDS011;8993;51.822;-2.268;2022-09-09T18:27:12;1.92;;;0.55;;
17741;SDS011;8993;51.822;-2.268;2022-09-09T18:32:16;1.07;;;0.37;;
17741;SDS011;8993;51.822;-2.268;2022-09-09T18:37:21;3.12;;;0.54;;
17741;SDS011;8993;51.822;-2.268;2022-09-09T18:42:25;1.01;;;0.40;;
17741;SDS011;8993;51.822;-2.268;2022-09-09T18:47:29;1.44;;;0.60;;
17741;SDS011;8993;51.822;-2.268;2022-09-09T18:52:34;1.26;;;0.59;;
17741;SDS011;8993;51.822;-2.268;2022-09-09T18:57:38;4.18;;;1.38;;
17741;SDS011;8993;51.822;-2.268;2022-09-09T19:02:42;4.82;;;1.34;;
17741;SDS011;8993;51.822;-2.268;2022-09-09T19:07:54;2.82;;;0.92;;
17741;SDS011;8993;51.822;-2.268;2022-09-09T19:12:48;1.74;;;0.78;;
17741;SDS011;8993;51.822;-2.268;2022-09-09T19:17:53;2.16;;;0.94;;
17741;SDS011;8993;51.822;-2.268;2022-09-09T19:22:57;2.06;;;0.93;;
17741;SDS011;8993;51.822;-2.268;2022-09-09T19:28:02;2.19;;;1.13;;
17741;SDS011;8993;51.822;-2.268;2022-09-09T19:33:06;3.97;;;1.05;;
17741;SDS011;8993;51.822;-2.268;2022-09-09T19:38:10;2.68;;;1.19;;
17741;SDS011;8993;51.822;-2.268;2022-09-09T19:43:15;3.99;;;1.77;;
17741;SDS011;8993;51.822;-2.268;2022-09-09T19:48:21;3.15;;;1.55;;
17741;SDS011;8993;51.822;-2.268;2022-09-09T19:53:25;4.71;;;1.81;;
17741;SDS011;8993;51.822;-2.268;2022-09-09T19:58:30;3.09;;;1.61;;
17741;SDS011;8993;51.822;-2.268;2022-09-09T20:03:34;4.63;;;1.44;;
17741;SDS011;8993;51.822;-2.268;2022-09-09T20:08:39;4.99;;;1.93;;
17741;SDS011;8993;51.822;-2.268;2022-09-09T20:13:43;5.75;;;1.95;;
17741;SDS011;8993;51.822;-2.268;2022-09-09T20:18:48;4.45;;;1.47;;
17741;SDS011;8993;51.822;-2.268;2022-09-09T20:23:52;2.94;;;1.22;;
17741;SDS011;8993;51.822;-2.268;2022-09-09T20:28:57;4.88;;;1.52;;
17741;SDS011;8993;51.822;-2.268;2022-09-09T20:34:02;3.86;;;1.37;;
17741;SDS011;8993;51.822;-2.268;2022-09-09T20:39:09;3.86;;;1.55;;
17741;SDS011;8993;51.822;-2.268;2022-09-09T20:44:15;2.82;;;1.28;;
17741;SDS011;8993;51.822;-2.268;2022-09-09T20:49:19;3.63;;;1.68;;
17741;SDS011;8993;51.822;-2.268;2022-09-09T20:54:24;2.62;;;1.19;;
17741;SDS011;8993;51.822;-2.268;2022-09-09T20:59:28;3.30;;;1.46;;
17741;SDS011;8993;51.822;-2.268;2022-09-09T21:04:31;3.63;;;1.79;;
17741;SDS011;8993;51.822;-2.268;2022-09-09T21:09:35;3.64;;;1.35;;
17741;SDS011;8993;51.822;-2.268;2022-09-09T21:14:40;2.54;;;1.26;;
17741;SDS011;8993;51.822;-2.268;2022-09-09T21:19:44;2.13;;;1.19;;
17741;SDS011;8993;51.822;-2.268;2022-09-09T21:24:49;4.72;;;1.99;;
17741;SDS011;8993;51.822;-2.268;2022-09-09T21:29:54;3.36;;;1.45;;
17741;SDS011;8993;51.822;-2.268;2022-09-09T21:34:58;3.97;;;1.57;;
17741;SDS011;8993;51.822;-2.268;2022-09-09T21:40:03;4.24;;;1.64;;
17741;SDS011;8993;51.822;-2.268;2022-09-09T21:45:08;3.02;;;1.43;;
17741;SDS011;8993;51.822;-2.268;2022-09-09T21:50:11;2.75;;;1.68;;
17741;SDS011;8993;51.822;-2.268;2022-09-09T21:55:16;3.46;;;1.84;;
17741;SDS011;8993;51.822;-2.268;2022-09-09T22:00:20;4.23;;;2.18;;
17741;SDS011;8993;51.822;-2.268;2022-09-09T22:05:26;4.13;;;1.97;;
17741;SDS011;8993;51.822;-2.268;2022-09-09T22:10:31;5.29;;;2.88;;
17741;SDS011;8993;51.822;-2.268;2022-09-09T22:15:35;5.81;;;3.05;;
17741;SDS011;8993;51.822;-2.268;2022-09-09T22:20:40;6.98;;;3.72;;
17741;SDS011;8993;51.822;-2.268;2022-09-09T22:25:44;2.99;;;2.24;;
17741;SDS011;8993;51.822;-2.268;2022-09-09T22:30:48;6.13;;;3.36;;
17741;SDS011;8993;51.822;-2.268;2022-09-09T22:35:52;5.02;;;2.76;;
17741;SDS011;8993;51.822;-2.268;2022-09-09T22:40:57;4.71;;;2.79;;
17741;SDS011;8993;51.822;-2.268;2022-09-09T22:46:02;4.01;;;2.85;;
17741;SDS011;8993;51.822;-2.268;2022-09-09T22:51:06;7.82;;;4.75;;
17741;SDS011;8993;51.822;-2.268;2022-09-09T22:56:12;8.21;;;4.12;;
17741;SDS011;8993;51.822;-2.268;2022-09-09T23:01:15;5.26;;;3.03;;
17741;SDS011;8993;51.822;-2.268;2022-09-09T23:06:20;5.89;;;2.89;;
17741;SDS011;8993;51.822;-2.268;2022-09-09T23:11:23;5.02;;;2.73;;
17741;SDS011;8993;51.822;-2.268;2022-09-09T23:16:27;6.68;;;2.67;;
17741;SDS011;8993;51.822;-2.268;2022-09-09T23:21:31;6.74;;;2.89;;
17741;SDS011;8993;51.822;-2.268;2022-09-09T23:26:35;4.04;;;2.54;;
17741;SDS011;8993;51.822;-2.268;2022-09-09T23:31:41;4.65;;;2.17;;
17741;SDS011;8993;51.822;-2.268;2022-09-09T23:36:44;4.35;;;2.31;;
17741;SDS011;8993;51.822;-2.268;2022-09-09T23:41:49;4.52;;;2.59;;
17741;SDS011;8993;51.822;-2.268;2022-09-09T23:46:53;4.58;;;2.86;;
17741;SDS011;8993;51.822;-2.268;2022-09-09T23:51:57;3.97;;;2.79;;
17741;SDS011;8993;51.822;-2.268;2022-09-09T23:57:01;4.01;;;2.78;;
